Terminal Aerodrome Forecast
Issued by NWS Newport/Morehead City, NC

Home | Current Version | Previous Version | Graphics & Text | Print | Product List | Glossary On
Versions: 1 2 3 4 5 6 7 8 9 10 11 12 13 14 15 16 17
691
FTUS42 KMHX 241729
TAFEWN
TAF
KEWN 241729Z 2418/2518 06009KT P6SM FEW040
     FM251000 03007KT P6SM BKN008
     FM251600 03009KT P6SM BKN025=

USA.gov is the U.S. government's official web portal to all federal, state and local government web resources and services.